createdAt,value
2022-10-21T00:01:13.822Z,101070
2022-10-21T00:06:13.827Z,101060
2022-10-21T00:11:13.833Z,101060
2022-10-21T00:16:13.833Z,101050
2022-10-21T00:21:13.856Z,101030
2022-10-21T00:26:13.841Z,101030
2022-10-21T00:31:13.843Z,101020
2022-10-21T00:36:13.844Z,101020
2022-10-21T00:41:13.847Z,101020
2022-10-21T00:46:13.852Z,101020
2022-10-21T00:51:13.886Z,101020
2022-10-21T00:56:15.649Z,101020
2022-10-21T01:01:17.814Z,101030
2022-10-21T01:06:13.871Z,101040
2022-10-21T01:11:13.867Z,101040
2022-10-21T01:16:13.872Z,101020
2022-10-21T01:21:13.906Z,101020
2022-10-21T01:26:13.872Z,101010
2022-10-21T01:31:13.876Z,101020
2022-10-21T01:36:13.884Z,101010
2022-10-21T01:41:13.887Z,101010
2022-10-21T01:46:13.883Z,100990
2022-10-21T01:51:13.985Z,100990
2022-10-21T01:56:13.885Z,100980
2022-10-21T02:01:13.984Z,100990
2022-10-21T02:06:13.897Z,100990
2022-10-21T02:11:13.905Z,100980
2022-10-21T02:16:13.920Z,100980
2022-10-21T02:21:13.967Z,100970
2022-10-21T02:26:13.914Z,100950
2022-10-21T02:31:13.911Z,100950
2022-10-21T02:36:13.916Z,100940
2022-10-21T02:41:13.929Z,100940
2022-10-21T02:46:13.928Z,100940
2022-10-21T02:51:13.955Z,100930
2022-10-21T02:56:13.930Z,100930
2022-10-21T03:01:13.987Z,100940
2022-10-21T03:06:13.932Z,100930
2022-10-21T03:11:13.937Z,100940
2022-10-21T03:16:13.973Z,100930
2022-10-21T03:21:14.006Z,100930
2022-10-21T03:26:13.957Z,100920
2022-10-21T03:31:13.945Z,100910
2022-10-21T03:36:13.954Z,100920
2022-10-21T03:41:13.951Z,100930
2022-10-21T03:46:13.960Z,100930
2022-10-21T03:51:13.996Z,100930
2022-10-21T03:56:13.964Z,100930
2022-10-21T04:01:14.048Z,100920
2022-10-21T04:06:13.971Z,100920
2022-10-21T04:11:13.979Z,100920
2022-10-21T04:16:13.988Z,100910
2022-10-21T04:21:14.102Z,100890
2022-10-21T04:26:13.984Z,100880
2022-10-21T04:31:13.981Z,100880
2022-10-21T04:36:13.994Z,100890
2022-10-21T04:41:13.995Z,100890
2022-10-21T04:46:14.001Z,100900
2022-10-21T04:51:14.015Z,100900
2022-10-21T04:56:13.998Z,100910
2022-10-21T05:01:14.077Z,100900
2022-10-21T05:06:14.005Z,100900
2022-10-21T05:11:14.021Z,100910
2022-10-21T05:16:14.009Z,100910
2022-10-21T05:21:14.099Z,100910
2022-10-21T05:26:14.016Z,100910
2022-10-21T05:31:14.026Z,100900
2022-10-21T05:36:14.029Z,100900
2022-10-21T05:41:14.027Z,100900
2022-10-21T05:46:14.027Z,100900
2022-10-21T05:51:14.039Z,100900
2022-10-21T05:56:14.064Z,100900
2022-10-21T06:01:14.099Z,100900
2022-10-21T06:06:14.043Z,100900
2022-10-21T06:11:14.043Z,100900
2022-10-21T06:16:14.057Z,100900
2022-10-21T06:21:14.062Z,100900
2022-10-21T06:26:14.083Z,100890
2022-10-21T06:31:14.056Z,100890
2022-10-21T06:36:14.056Z,100890
2022-10-21T06:41:14.068Z,100880
2022-10-21T06:46:14.083Z,100880
2022-10-21T06:51:14.081Z,100880
2022-10-21T06:56:14.083Z,100880
2022-10-21T07:01:27.424Z,100880
2022-10-21T07:06:14.081Z,100890
2022-10-21T07:11:14.079Z,100900
2022-10-21T07:16:14.158Z,100890
2022-10-21T07:21:14.111Z,100900
2022-10-21T07:26:14.122Z,100900
2022-10-21T07:31:14.096Z,100900
2022-10-21T07:36:14.094Z,100900
2022-10-21T07:41:14.096Z,100920
2022-10-21T07:47:15.282Z,100920
2022-10-21T07:51:14.116Z,100920
2022-10-21T07:56:14.120Z,100930
2022-10-21T08:01:14.163Z,100940
2022-10-21T08:06:14.113Z,100940
2022-10-21T08:11:14.121Z,100940
2022-10-21T08:16:14.124Z,100930
2022-10-21T08:21:14.129Z,100930
2022-10-21T08:26:14.142Z,100920
2022-10-21T08:31:14.128Z,100920
2022-10-21T08:36:14.137Z,100930
2022-10-21T08:41:14.134Z,100920
2022-10-21T08:46:14.139Z,100920
2022-10-21T08:51:14.150Z,100920
2022-10-21T08:56:18.633Z,100910
2022-10-21T09:01:14.144Z,100910
2022-10-21T09:06:14.148Z,100900
2022-10-21T09:11:14.154Z,100900
2022-10-21T09:16:14.155Z,100910
2022-10-21T09:21:14.168Z,100920
2022-10-21T09:26:14.179Z,100920
2022-10-21T09:31:14.177Z,100920
2022-10-21T09:36:14.171Z,100930
2022-10-21T09:41:14.212Z,100930
2022-10-21T09:46:14.180Z,100930
2022-10-21T09:51:14.187Z,100930
2022-10-21T09:56:14.216Z,100960
2022-10-21T10:01:14.181Z,100960
2022-10-21T10:06:14.177Z,100950
2022-10-21T10:11:14.193Z,100950
2022-10-21T10:16:14.191Z,100950
2022-10-21T10:21:14.204Z,100960
2022-10-21T10:26:14.219Z,100960
2022-10-21T10:31:14.203Z,100950
2022-10-21T10:36:14.197Z,100940
2022-10-21T10:41:14.208Z,100930
2022-10-21T10:46:14.210Z,100940
2022-10-21T10:51:14.225Z,100960
2022-10-21T10:56:14.239Z,100950
2022-10-21T11:01:14.282Z,100950
2022-10-21T11:06:14.222Z,100960
2022-10-21T11:11:14.221Z,100950
2022-10-21T11:16:14.231Z,100960
2022-10-21T11:21:14.241Z,100950
2022-10-21T11:26:14.261Z,100950
2022-10-21T11:31:14.242Z,100950
2022-10-21T11:36:14.242Z,100950
2022-10-21T11:46:14.248Z,100950
2022-10-21T11:51:16.587Z,100950
2022-10-21T11:56:14.278Z,100950
2022-10-21T12:01:14.262Z,100940
2022-10-21T12:06:14.258Z,100940
2022-10-21T12:11:14.560Z,100930
2022-10-21T12:16:14.314Z,100920
2022-10-21T12:21:14.283Z,100920
2022-10-21T12:26:14.328Z,100920
2022-10-21T12:31:14.277Z,100910
2022-10-21T12:36:14.274Z,100910
2022-10-21T12:41:14.281Z,100900
2022-10-21T12:46:14.286Z,100900
2022-10-21T12:48:22.608Z,100900
2022-10-21T12:51:14.296Z,100900
2022-10-21T12:56:14.314Z,100890
2022-10-21T13:01:14.356Z,100900
2022-10-21T13:06:14.303Z,100890
2022-10-21T13:11:14.299Z,100890
2022-10-21T13:16:14.303Z,100900
2022-10-21T13:21:17.266Z,100910
2022-10-21T13:26:14.333Z,100910
2022-10-21T13:31:14.304Z,100910
2022-10-21T13:36:14.313Z,100910
2022-10-21T13:41:14.312Z,100900
2022-10-21T13:46:14.325Z,100910
2022-10-21T13:51:14.328Z,100910
2022-10-21T13:56:14.354Z,100910
2022-10-21T14:01:14.354Z,100920
2022-10-21T14:06:14.330Z,100930
2022-10-21T14:11:14.340Z,100930
2022-10-21T14:16:14.333Z,100920
2022-10-21T14:21:14.361Z,100910
2022-10-21T14:26:14.369Z,100920
2022-10-21T14:31:14.344Z,100920
2022-10-21T14:36:14.352Z,100920
2022-10-21T14:41:14.358Z,100920
2022-10-21T14:46:14.355Z,100930
2022-10-21T14:51:16.561Z,100930
2022-10-21T14:56:14.395Z,100930
2022-10-21T15:01:14.365Z,100920
2022-10-21T15:06:14.367Z,100930
2022-10-21T15:11:14.373Z,100930
2022-10-21T15:16:14.377Z,100930
2022-10-21T15:21:14.383Z,100920
2022-10-21T15:26:14.402Z,100920
2022-10-21T15:31:14.377Z,100930
2022-10-21T15:36:14.387Z,100930
2022-10-21T15:41:14.391Z,100940
2022-10-21T15:46:14.399Z,100940
2022-10-21T15:51:14.400Z,100950
2022-10-21T15:56:14.426Z,100950
2022-10-21T16:01:14.427Z,100950
2022-10-21T16:06:14.405Z,100950
2022-10-21T16:11:18.741Z,100950
2022-10-21T16:16:14.418Z,100940
2022-10-21T16:21:14.424Z,100940
2022-10-21T16:26:14.437Z,100940
2022-10-21T16:31:14.423Z,100950
2022-10-21T16:36:14.425Z,100950
2022-10-21T16:41:14.424Z,100960
2022-10-21T16:46:14.420Z,100960
2022-10-21T16:51:14.442Z,100960
2022-10-21T16:56:14.561Z,100970
2022-10-21T17:01:14.518Z,100990
2022-10-21T17:06:14.452Z,101000
2022-10-21T17:11:14.439Z,101000
2022-10-21T17:16:14.470Z,100990
2022-10-21T17:21:14.483Z,101000
2022-10-21T17:26:14.513Z,101010
2022-10-21T17:31:14.481Z,101010
2022-10-21T17:36:14.485Z,101020
2022-10-21T17:41:14.479Z,101020
2022-10-21T17:46:14.462Z,101030
2022-10-21T17:51:14.522Z,101040
2022-10-21T17:56:14.490Z,101040
2022-10-21T18:01:14.516Z,101040
2022-10-21T18:06:14.489Z,101040
2022-10-21T18:11:14.515Z,101040
2022-10-21T18:16:14.481Z,101040
2022-10-21T18:21:14.502Z,101040
2022-10-21T18:26:14.535Z,101040
2022-10-21T18:31:14.522Z,101040
2022-10-21T18:36:14.523Z,101050
2022-10-21T18:41:20.010Z,101050
2022-10-21T18:46:14.514Z,101050
2022-10-21T18:51:14.606Z,101040
2022-10-21T18:56:14.520Z,101040
2022-10-21T19:01:14.543Z,101040
2022-10-21T19:06:14.513Z,101040
2022-10-21T19:11:14.554Z,101040
2022-10-21T19:16:14.518Z,101050
2022-10-21T19:21:14.545Z,101040
2022-10-21T19:26:14.547Z,101050
2022-10-21T19:31:14.534Z,101050
2022-10-21T19:36:14.532Z,101050
2022-10-21T19:41:14.537Z,101050
2022-10-21T19:46:14.534Z,101050
2022-10-21T19:51:15.447Z,101060
2022-10-21T19:56:14.564Z,101050
2022-10-21T20:01:14.639Z,101060
2022-10-21T20:06:14.689Z,101060
2022-10-21T20:11:14.560Z,101060
2022-10-21T20:16:14.554Z,101060
2022-10-21T20:21:14.569Z,101060
2022-10-21T20:26:14.587Z,101060
2022-10-21T20:31:14.564Z,101060
2022-10-21T20:36:14.565Z,101070
2022-10-21T20:41:14.570Z,101070
2022-10-21T20:46:14.577Z,101080
2022-10-21T20:51:14.588Z,101080
2022-10-21T20:56:14.652Z,101080
2022-10-21T21:01:14.694Z,101080
2022-10-21T21:06:14.584Z,101090
2022-10-21T21:11:14.587Z,101090
2022-10-21T21:16:14.591Z,101100
2022-10-21T21:21:14.610Z,101110
2022-10-21T21:26:14.612Z,101100
2022-10-21T21:31:14.604Z,101110
2022-10-21T21:36:14.609Z,101110
2022-10-21T21:41:14.600Z,101120
2022-10-21T21:46:14.615Z,101130
2022-10-21T21:51:14.695Z,101120
2022-10-21T21:56:14.634Z,101120
2022-10-21T22:01:14.653Z,101120
2022-10-21T22:06:14.697Z,101120
2022-10-21T22:11:14.655Z,101120
2022-10-21T22:16:14.636Z,101120
2022-10-21T22:21:14.640Z,101120
2022-10-21T22:26:14.712Z,101120
2022-10-21T22:31:14.633Z,101120
2022-10-21T22:36:14.636Z,101120
2022-10-21T22:41:14.638Z,101120
2022-10-21T22:46:29.174Z,101120
2022-10-21T22:51:14.656Z,101120
2022-10-21T22:56:14.677Z,101120
2022-10-21T23:01:14.649Z,101110
2022-10-21T23:06:14.658Z,101110
2022-10-21T23:11:14.666Z,101110
2022-10-21T23:16:14.655Z,101110
2022-10-21T23:21:14.675Z,101110
2022-10-21T23:26:14.743Z,101110
2022-10-21T23:31:14.667Z,101110
2022-10-21T23:36:14.671Z,101110
2022-10-21T23:41:14.688Z,101110
2022-10-21T23:46:14.770Z,101110
2022-10-21T23:51:14.690Z,101110
2022-10-21T23:56:14.717Z,101110
